createdAt,value
2022-08-26T00:00:44.616Z,23.67
2022-08-26T00:03:47.536Z,23.54
2022-08-26T00:06:49.082Z,23.54
2022-08-26T00:09:54.378Z,23.25
2022-08-26T00:12:56.980Z,23.31
2022-08-26T00:15:58.634Z,23.02
2022-08-26T00:19:00.099Z,23.06
2022-08-26T00:22:01.512Z,23.02
2022-08-26T00:25:04.614Z,23.04
2022-08-26T00:28:06.883Z,22.99
2022-08-26T00:31:11.046Z,22.80
2022-08-26T00:34:14.138Z,22.77
2022-08-26T00:37:16.718Z,22.87
2022-08-26T00:40:25.486Z,22.65
2022-08-26T00:43:27.400Z,22.72
2022-08-26T00:46:33.720Z,22.76
2022-08-26T00:49:42.207Z,22.78
2022-08-26T00:52:44.870Z,22.68
2022-08-26T00:55:59.737Z,22.45
2022-08-26T00:59:06.168Z,22.45
2022-08-26T01:02:07.674Z,22.42
2022-08-26T01:05:23.164Z,22.53
2022-08-26T01:08:25.306Z,22.46
2022-08-26T01:11:29.428Z,22.55
2022-08-26T01:14:33.924Z,22.37
2022-08-26T01:17:38.337Z,22.45
2022-08-26T01:20:48.611Z,22.51
2022-08-26T01:23:51.741Z,22.45
2022-08-26T01:27:05.144Z,22.33
2022-08-26T01:30:07.261Z,22.29
2022-08-26T01:33:15.711Z,22.30
2022-08-26T01:36:17.322Z,22.11
2022-08-26T01:39:20.209Z,22.05
2022-08-26T01:42:23.888Z,21.87
2022-08-26T01:45:29.068Z,21.73
2022-08-26T01:48:34.641Z,21.74
2022-08-26T01:51:39.864Z,21.77
2022-08-26T01:54:41.477Z,21.71
2022-08-26T01:57:50.833Z,21.79
2022-08-26T02:00:58.590Z,21.68
2022-08-26T02:04:17.693Z,21.78
2022-08-26T02:07:21.466Z,21.55
2022-08-26T02:10:23.074Z,21.50
2022-08-26T02:13:29.945Z,21.59
2022-08-26T02:16:39.625Z,21.61
2022-08-26T02:19:48.302Z,21.61
2022-08-26T02:22:49.894Z,21.41
2022-08-26T02:25:57.802Z,21.51
2022-08-26T02:29:07.652Z,21.46
2022-08-26T02:32:10.179Z,21.43
2022-08-26T02:35:13.779Z,21.17
2022-08-26T02:38:19.886Z,21.36
2022-08-26T02:41:21.340Z,21.44
2022-08-26T02:44:25.778Z,21.48
2022-08-26T02:47:28.944Z,21.39
2022-08-26T02:50:30.626Z,21.19
2022-08-26T02:53:35.539Z,21.17
2022-08-26T02:56:37.338Z,21.00
2022-08-26T02:59:39.917Z,21.12
2022-08-26T03:02:41.678Z,21.02
2022-08-26T03:05:44.506Z,21.01
2022-08-26T03:08:46.729Z,20.91
2022-08-26T03:11:48.461Z,20.86
2022-08-26T03:14:50.584Z,20.93
2022-08-26T03:17:55.588Z,20.87
2022-08-26T03:21:04.153Z,21.20
2022-08-26T03:24:06.401Z,21.07
2022-08-26T03:27:07.937Z,21.18
2022-08-26T03:30:29.660Z,21.12
2022-08-26T03:33:31.201Z,21.06
2022-08-26T03:36:33.472Z,21.09
2022-08-26T03:39:36.862Z,20.87
2022-08-26T03:42:41.226Z,20.86
2022-08-26T03:45:46.920Z,20.97
2022-08-26T03:48:48.330Z,20.78
2022-08-26T03:51:51.510Z,20.94
2022-08-26T03:54:53.270Z,20.93
2022-08-26T03:57:55.023Z,20.88
2022-08-26T04:00:56.845Z,20.63
2022-08-26T04:04:00.610Z,20.80
2022-08-26T04:07:02.394Z,20.71
2022-08-26T04:10:04.962Z,20.78
2022-08-26T04:13:06.511Z,20.84
2022-08-26T04:16:08.059Z,20.66
2022-08-26T04:19:14.372Z,20.66
2022-08-26T04:22:15.962Z,20.69
2022-08-26T04:25:26.338Z,20.65
2022-08-26T04:28:29.365Z,20.66
2022-08-26T04:31:33.356Z,20.50
2022-08-26T04:34:35.470Z,20.54
2022-08-26T04:37:37.442Z,20.60
2022-08-26T04:40:46.867Z,20.53
2022-08-26T04:43:48.894Z,20.46
2022-08-26T04:46:50.542Z,20.39
2022-08-26T04:49:55.791Z,20.41
2022-08-26T04:52:59.309Z,20.53
2022-08-26T04:56:01.089Z,20.66
2022-08-26T04:59:06.097Z,20.82
2022-08-26T05:02:08.848Z,20.86
2022-08-26T05:05:10.728Z,20.79
2022-08-26T05:08:13.734Z,20.86
2022-08-26T05:11:15.585Z,21.00
2022-08-26T05:14:18.307Z,20.76
2022-08-26T05:17:20.545Z,20.82
2022-08-26T05:20:26.163Z,21.08
2022-08-26T05:23:28.578Z,21.00
2022-08-26T05:26:31.432Z,21.17
2022-08-26T05:29:33.175Z,21.17
2022-08-26T05:32:34.802Z,21.29
2022-08-26T05:35:38.285Z,21.30
2022-08-26T05:38:39.713Z,21.32
2022-08-26T05:41:43.158Z,21.21
2022-08-26T05:44:54.111Z,20.75
2022-08-26T05:47:57.609Z,20.74
2022-08-26T05:51:06.153Z,20.72
2022-08-26T05:54:07.619Z,20.81
2022-08-26T05:57:13.780Z,20.81
2022-08-26T06:00:16.128Z,20.64
2022-08-26T06:03:18.212Z,20.70
2022-08-26T06:06:27.830Z,20.56
2022-08-26T06:09:30.775Z,20.45
2022-08-26T06:12:33.636Z,20.39
2022-08-26T06:15:35.508Z,20.43
2022-08-26T06:18:39.908Z,20.53
2022-08-26T06:21:44.902Z,20.55
2022-08-26T06:25:04.821Z,20.57
2022-08-26T06:28:07.487Z,20.58
2022-08-26T06:31:08.955Z,20.69
2022-08-26T06:34:11.047Z,20.70
2022-08-26T06:37:12.518Z,20.81
2022-08-26T06:40:14.061Z,20.91
2022-08-26T06:43:17.724Z,20.91
2022-08-26T06:46:21.779Z,21.03
2022-08-26T06:49:27.147Z,21.20
2022-08-26T06:52:29.232Z,21.09
2022-08-26T06:55:31.960Z,21.09
2022-08-26T06:58:35.074Z,21.11
2022-08-26T07:01:44.518Z,21.25
2022-08-26T07:04:47.895Z,21.52
2022-08-26T07:07:49.605Z,21.68
2022-08-26T07:10:51.147Z,21.72
2022-08-26T07:13:58.930Z,21.86
2022-08-26T07:17:02.531Z,21.92
2022-08-26T07:20:07.436Z,22.04
2022-08-26T07:23:11.746Z,22.10
2022-08-26T07:26:19.182Z,22.20
2022-08-26T07:29:20.646Z,22.33
2022-08-26T07:32:25.983Z,22.40
2022-08-26T07:35:27.470Z,22.47
2022-08-26T07:38:29.051Z,22.67
2022-08-26T07:41:33.030Z,22.76
2022-08-26T07:44:35.335Z,22.87
2022-08-26T07:47:36.810Z,22.99
2022-08-26T07:50:49.309Z,23.03
2022-08-26T07:53:53.278Z,23.12
2022-08-26T07:56:56.100Z,23.26
2022-08-26T07:59:58.149Z,23.26
2022-08-26T08:03:00.870Z,23.36
2022-08-26T08:06:02.445Z,23.41
2022-08-26T08:09:05.287Z,23.58
2022-08-26T08:12:09.411Z,23.66
2022-08-26T08:15:16.781Z,23.62
2022-08-26T08:18:20.383Z,23.66
2022-08-26T08:21:26.209Z,23.82
2022-08-26T08:24:27.798Z,23.77
2022-08-26T08:27:29.384Z,23.91
2022-08-26T08:30:31.713Z,24.08
2022-08-26T08:33:36.615Z,24.09
2022-08-26T08:36:39.968Z,24.21
2022-08-26T08:39:43.092Z,24.35
2022-08-26T08:42:47.072Z,24.36
2022-08-26T08:46:00.416Z,24.43
2022-08-26T08:49:04.089Z,24.59
2022-08-26T08:52:29.462Z,24.56
2022-08-26T08:55:55.832Z,24.60
2022-08-26T08:59:04.465Z,24.84
2022-08-26T09:02:20.857Z,24.90
2022-08-26T09:05:22.477Z,24.81
2022-08-26T09:08:29.380Z,25.01
2022-08-26T09:11:31.015Z,25.04
2022-08-26T09:14:33.573Z,25.04
2022-08-26T09:17:46.777Z,25.33
2022-08-26T09:21:10.804Z,25.42
2022-08-26T09:24:13.978Z,25.31
2022-08-26T09:27:44.747Z,25.49
2022-08-26T09:30:57.805Z,25.61
2022-08-26T09:34:36.072Z,25.64
2022-08-26T09:41:05.278Z,26.03
2022-08-26T09:44:15.696Z,26.15
2022-08-26T09:47:23.199Z,26.40
2022-08-26T09:50:30.022Z,26.21
2022-08-26T09:53:36.491Z,26.15
2022-08-26T09:56:39.268Z,26.04
2022-08-26T09:59:40.796Z,26.05
2022-08-26T10:02:47.818Z,25.99
2022-08-26T10:06:06.950Z,25.64
2022-08-26T10:09:14.875Z,25.72
2022-08-26T10:12:21.675Z,25.77
2022-08-26T10:15:25.399Z,25.48
2022-08-26T10:18:40.247Z,25.42
2022-08-26T10:21:55.763Z,25.46
2022-08-26T10:25:01.176Z,25.17
2022-08-26T10:28:22.492Z,25.21
2022-08-26T10:31:42.388Z,25.22
2022-08-26T10:34:44.842Z,25.15
2022-08-26T10:37:55.642Z,25.10
2022-08-26T10:41:10.466Z,24.87
2022-08-26T10:44:14.979Z,24.76
2022-08-26T10:47:25.939Z,24.52
2022-08-26T10:50:35.224Z,24.45
2022-08-26T10:54:03.261Z,24.16
2022-08-26T10:57:09.591Z,24.22
2022-08-26T11:00:37.625Z,24.12
2022-08-26T11:04:02.133Z,24.20
2022-08-26T11:07:35.239Z,24.12
2022-08-26T11:10:56.728Z,24.06
2022-08-26T11:14:05.669Z,24.34
2022-08-26T11:17:11.643Z,24.30
2022-08-26T11:20:34.793Z,24.47
2022-08-26T11:23:38.273Z,24.71
2022-08-26T11:26:56.273Z,24.81
2022-08-26T11:30:06.946Z,24.82
2022-08-26T11:33:09.380Z,24.86
2022-08-26T11:36:28.156Z,24.64
2022-08-26T11:39:56.984Z,24.97
2022-08-26T11:43:03.203Z,25.56
2022-08-26T11:46:10.459Z,25.76
2022-08-26T11:49:12.964Z,25.51
2022-08-26T11:52:22.044Z,25.64
2022-08-26T11:55:24.228Z,25.68
2022-08-26T11:58:28.003Z,26.20
2022-08-26T12:01:41.766Z,26.97
2022-08-26T12:04:48.371Z,26.39
2022-08-26T12:07:51.602Z,26.98
2022-08-26T12:11:09.710Z,27.30
2022-08-26T12:14:24.297Z,27.71
2022-08-26T12:17:27.820Z,27.99
2022-08-26T12:20:46.471Z,28.16
2022-08-26T12:23:50.539Z,28.75
2022-08-26T12:27:18.082Z,28.78
2022-08-26T12:30:24.442Z,28.74
2022-08-26T12:33:28.805Z,29.34
2022-08-26T12:36:42.477Z,29.34
2022-08-26T12:39:46.200Z,29.10
2022-08-26T12:42:47.657Z,29.46
2022-08-26T12:45:58.368Z,29.68
2022-08-26T12:49:03.875Z,29.78
2022-08-26T12:52:09.359Z,29.66
2022-08-26T12:55:24.466Z,29.83
2022-08-26T12:58:35.153Z,29.72
2022-08-26T13:01:43.138Z,29.66
2022-08-26T13:04:46.084Z,29.60
2022-08-26T13:08:10.403Z,29.74
2022-08-26T13:11:20.076Z,29.58
2022-08-26T13:14:23.959Z,29.71
2022-08-26T13:17:27.850Z,29.81
2022-08-26T13:20:29.792Z,29.72
2022-08-26T13:23:31.315Z,30.02
2022-08-26T13:26:33.086Z,30.46
2022-08-26T13:29:35.096Z,31.14
2022-08-26T13:32:36.943Z,31.29
2022-08-26T13:35:39.139Z,31.46
2022-08-26T13:38:40.618Z,31.62
2022-08-26T13:41:43.175Z,31.60
2022-08-26T13:44:47.691Z,31.68
2022-08-26T13:47:49.120Z,31.91
2022-08-26T13:50:51.786Z,32.17
2022-08-26T13:53:53.775Z,31.96
2022-08-26T13:56:55.235Z,32.23
2022-08-26T13:59:59.106Z,32.21
2022-08-26T14:03:00.991Z,32.46
2022-08-26T14:06:02.727Z,32.47
2022-08-26T14:09:04.835Z,31.94
2022-08-26T14:12:06.481Z,31.71
2022-08-26T14:15:08.454Z,31.57
2022-08-26T14:18:15.985Z,31.49
2022-08-26T14:21:18.795Z,31.22
2022-08-26T14:24:20.277Z,31.37
2022-08-26T14:27:21.692Z,31.36
2022-08-26T14:30:23.471Z,31.51
2022-08-26T14:33:28.816Z,32.06
2022-08-26T14:36:33.630Z,32.09
2022-08-26T14:39:35.656Z,32.37
2022-08-26T14:42:37.166Z,32.65
2022-08-26T14:48:49.671Z,33.03
2022-08-26T14:51:51.196Z,32.41
2022-08-26T14:54:55.018Z,31.94
2022-08-26T14:57:56.962Z,31.78
2022-08-26T15:00:58.453Z,31.45
2022-08-26T15:04:05.690Z,31.30
2022-08-26T15:07:07.855Z,31.50
2022-08-26T15:10:15.984Z,31.74
2022-08-26T15:13:17.432Z,31.44
2022-08-26T15:16:19.173Z,31.49
2022-08-26T15:19:23.733Z,31.36
2022-08-26T15:22:26.029Z,31.77
2022-08-26T15:25:31.282Z,31.42
2022-08-26T15:28:32.793Z,30.98
2022-08-26T15:31:34.453Z,31.36
2022-08-26T15:34:36.118Z,31.59
2022-08-26T15:37:38.904Z,31.64
2022-08-26T15:40:40.746Z,31.54
2022-08-26T15:43:42.225Z,31.59
2022-08-26T15:46:44.405Z,31.06
2022-08-26T15:49:46.061Z,31.01
2022-08-26T15:52:47.866Z,30.96
2022-08-26T15:55:49.901Z,31.06
2022-08-26T15:58:51.735Z,30.90
2022-08-26T16:01:59.136Z,30.81
2022-08-26T16:05:00.675Z,30.40
2022-08-26T16:08:03.526Z,30.17
2022-08-26T16:11:05.827Z,30.18
2022-08-26T16:14:07.716Z,30.01
2022-08-26T16:17:09.222Z,30.35
2022-08-26T16:20:10.932Z,30.24
2022-08-26T16:23:12.373Z,29.99
2022-08-26T16:26:17.536Z,30.08
2022-08-26T16:29:19.085Z,30.08
2022-08-26T16:32:20.642Z,29.67
2022-08-26T16:35:22.112Z,29.74
2022-08-26T16:38:23.766Z,29.61
2022-08-26T16:41:28.222Z,29.41
2022-08-26T16:44:30.826Z,29.12
2022-08-26T16:47:33.622Z,28.84
2022-08-26T16:50:37.461Z,28.75
2022-08-26T16:53:39.157Z,28.45
2022-08-26T16:56:40.686Z,28.64
2022-08-26T16:59:42.153Z,28.40
2022-08-26T17:02:45.175Z,28.23
2022-08-26T17:05:46.715Z,28.18
2022-08-26T17:08:49.301Z,28.00
2022-08-26T17:11:51.302Z,27.68
2022-08-26T17:14:52.849Z,27.68
2022-08-26T17:17:55.083Z,27.24
2022-08-26T17:21:01.661Z,27.48
2022-08-26T17:24:04.688Z,27.39
2022-08-26T17:27:06.217Z,27.32
2022-08-26T17:30:08.915Z,27.21
2022-08-26T17:33:11.181Z,27.11
2022-08-26T17:36:12.901Z,27.07
2022-08-26T17:39:14.367Z,27.14
2022-08-26T17:42:16.082Z,26.78
2022-08-26T17:48:25.282Z,26.43
2022-08-26T17:51:27.496Z,26.41
2022-08-26T17:54:30.205Z,26.29
2022-08-26T17:57:35.077Z,26.17
2022-08-26T18:00:48.322Z,26.11
2022-08-26T18:03:49.930Z,26.03
2022-08-26T18:06:51.571Z,26.08
2022-08-26T18:09:53.046Z,25.97
2022-08-26T18:12:54.521Z,25.87
2022-08-26T18:15:56.198Z,25.92
2022-08-26T18:18:58.411Z,25.73
2022-08-26T18:21:59.912Z,25.75
2022-08-26T18:25:01.382Z,25.63
2022-08-26T18:28:03.108Z,25.57
2022-08-26T18:31:07.315Z,25.50
2022-08-26T18:34:12.780Z,25.24
2022-08-26T18:37:14.699Z,24.93
2022-08-26T18:40:17.531Z,24.72
2022-08-26T18:43:19.093Z,24.57
2022-08-26T18:46:25.016Z,24.49
2022-08-26T18:49:26.953Z,24.51
2022-08-26T18:52:28.441Z,24.27
2022-08-26T18:55:29.946Z,24.40
2022-08-26T18:58:31.425Z,24.38
2022-08-26T19:01:34.823Z,24.08
2022-08-26T19:04:40.903Z,24.15
2022-08-26T19:07:44.118Z,24.13
2022-08-26T19:10:49.570Z,24.00
2022-08-26T19:13:51.070Z,24.02
2022-08-26T19:16:53.628Z,24.06
2022-08-26T19:19:55.257Z,24.03
2022-08-26T19:23:02.476Z,24.19
2022-08-26T19:26:08.497Z,24.08
2022-08-26T19:29:10.065Z,24.27
2022-08-26T19:32:13.110Z,24.17
2022-08-26T19:35:14.918Z,24.13
2022-08-26T19:38:16.494Z,24.14
2022-08-26T19:41:21.503Z,24.14
2022-08-26T19:44:42.093Z,24.11
2022-08-26T19:47:44.085Z,24.18
2022-08-26T19:50:48.389Z,24.21
2022-08-26T19:53:51.276Z,24.10
2022-08-26T19:56:53.422Z,24.11
2022-08-26T19:59:55.179Z,24.14
2022-08-26T20:02:56.743Z,24.09
2022-08-26T20:05:58.359Z,23.91
2022-08-26T20:09:00.026Z,23.99
2022-08-26T20:12:03.588Z,23.85
2022-08-26T20:15:05.855Z,23.81
2022-08-26T20:18:30.545Z,23.93
2022-08-26T20:21:38.012Z,24.04
2022-08-26T20:24:39.529Z,24.00
2022-08-26T20:27:40.954Z,24.04
2022-08-26T20:30:42.392Z,23.86
2022-08-26T20:33:46.192Z,23.78
2022-08-26T20:36:49.645Z,23.79
2022-08-26T20:39:51.159Z,23.69
2022-08-26T20:42:52.645Z,23.63
2022-08-26T20:45:54.285Z,23.62
2022-08-26T20:48:56.230Z,23.47
2022-08-26T20:52:00.499Z,23.58
2022-08-26T20:55:02.460Z,23.58
2022-08-26T20:58:04.278Z,23.55
2022-08-26T21:01:07.983Z,23.58
2022-08-26T21:04:13.857Z,23.48
2022-08-26T21:07:16.313Z,23.70
2022-08-26T21:10:19.248Z,23.67
2022-08-26T21:13:21.641Z,23.75
2022-08-26T21:16:23.187Z,23.52
2022-08-26T21:19:24.757Z,23.38
2022-08-26T21:22:26.416Z,23.35
2022-08-26T21:25:28.041Z,23.39
2022-08-26T21:28:29.834Z,23.42
2022-08-26T21:31:32.044Z,23.37
2022-08-26T21:34:33.902Z,23.22
2022-08-26T21:37:35.444Z,23.31
2022-08-26T21:40:36.918Z,23.38
2022-08-26T21:43:39.088Z,23.42
2022-08-26T21:46:41.026Z,23.36
2022-08-26T21:49:44.035Z,23.22
2022-08-26T21:52:45.544Z,23.02
2022-08-26T21:55:47.470Z,22.90
2022-08-26T21:58:49.850Z,22.89
2022-08-26T22:01:54.575Z,22.92
2022-08-26T22:04:56.409Z,22.85
2022-08-26T22:07:57.947Z,22.79
2022-08-26T22:11:00.718Z,22.76
2022-08-26T22:14:02.183Z,22.99
2022-08-26T22:17:03.806Z,22.98
2022-08-26T22:20:06.610Z,22.91
2022-08-26T22:23:18.312Z,22.80
2022-08-26T22:26:25.466Z,22.61
2022-08-26T22:29:27.374Z,22.57
2022-08-26T22:32:28.845Z,22.48
2022-08-26T22:35:30.973Z,22.56
2022-08-26T22:38:32.999Z,22.52
2022-08-26T22:41:35.255Z,22.56
2022-08-26T22:44:37.489Z,22.42
2022-08-26T22:47:40.119Z,22.37
2022-08-26T22:50:45.850Z,22.42
2022-08-26T22:53:47.421Z,22.40
2022-08-26T22:56:48.914Z,22.37
2022-08-26T22:59:50.360Z,22.37
2022-08-26T23:02:51.778Z,22.47
2022-08-26T23:05:53.452Z,22.46
2022-08-26T23:08:55.025Z,22.55
2022-08-26T23:11:56.749Z,22.59
2022-08-26T23:14:58.792Z,22.49
2022-08-26T23:18:00.267Z,22.53
2022-08-26T23:21:02.182Z,22.56
2022-08-26T23:24:04.814Z,22.59
2022-08-26T23:27:06.385Z,22.60
2022-08-26T23:30:12.663Z,22.56
2022-08-26T23:33:14.819Z,22.51
2022-08-26T23:36:17.927Z,22.50
2022-08-26T23:39:19.779Z,22.50
2022-08-26T23:42:21.914Z,22.33
2022-08-26T23:45:24.868Z,22.35
2022-08-26T23:48:26.402Z,22.22
2022-08-26T23:51:46.687Z,22.24
2022-08-26T23:54:49.973Z,22.24
2022-08-26T23:57:51.463Z,22.23
